Time,TemperatureF,DewpointF,PressureIn,WindDirection,WindDirectionDegrees,WindSpeedMPH,WindSpeedGustMPH,Humidity,HourlyPrecipIn,Conditions,Clouds,dailyrainin,SoftwareType,DateUTC
2013-01-17 00:01:00,50.9,48.6,29.95,SW,225,0.0,0.4,92,0.04,,,0.00,WUHU216HW,2013-01-17 05:01:00,
2013-01-17 00:06:00,50.9,48.6,29.95,SSE,158,0.0,0.9,92,0.03,,,0.00,WUHU216HW,2013-01-17 05:06:00,
2013-01-17 00:11:00,50.9,48.6,29.95,SW,225,1.1,1.1,92,0.03,,,0.00,WUHU216HW,2013-01-17 05:11:00,
2013-01-17 00:16:00,50.9,48.6,29.95,SE,135,0.0,1.1,92,0.03,,,0.00,WUHU216HW,2013-01-17 05:16:00,
2013-01-17 00:21:00,51.1,48.8,29.95,SE,135,0.0,1.1,92,0.03,,,0.00,WUHU216HW,2013-01-17 05:21:00,
2013-01-17 00:26:00,51.1,48.8,29.95,SW,225,0.0,0.7,92,0.02,,,0.00,WUHU216HW,2013-01-17 05:26:00,
2013-01-17 00:31:00,51.1,48.8,29.95,SW,225,0.0,0.4,92,0.03,,,0.01,WUHU216HW,2013-01-17 05:31:00,
2013-01-17 00:36:00,51.1,48.8,29.95,SW,225,0.0,0.0,92,0.03,,,0.01,WUHU216HW,2013-01-17 05:36:00,
2013-01-17 00:41:00,51.3,49.0,29.94,SW,225,0.0,0.0,92,0.02,,,0.01,WUHU216HW,2013-01-17 05:41:00,
2013-01-17 00:46:00,51.3,49.0,29.95,SW,225,0.0,0.0,92,0.02,,,0.01,WUHU216HW,2013-01-17 05:46:00,
2013-01-17 00:51:00,51.1,48.8,29.95,SW,225,0.4,0.4,92,0.02,,,0.01,WUHU216HW,2013-01-17 05:51:00,
2013-01-17 00:56:00,51.3,49.0,29.95,SW,225,0.0,0.4,92,0.02,,,0.02,WUHU216HW,2013-01-17 05:56:00,
2013-01-17 01:01:00,51.3,49.0,29.95,SW,225,0.0,0.4,92,0.02,,,0.02,WUHU216HW,2013-01-17 06:01:00,
2013-01-17 01:06:00,51.3,49.0,29.95,SE,135,0.0,0.2,92,0.02,,,0.02,WUHU216HW,2013-01-17 06:06:00,
2013-01-17 01:11:00,51.3,49.0,29.95,SE,135,0.0,0.2,92,0.02,,,0.02,WUHU216HW,2013-01-17 06:11:00,
2013-01-17 01:16:00,51.5,49.1,29.95,SE,135,0.0,0.0,92,0.02,,,0.02,WUHU216HW,2013-01-17 06:16:00,
2013-01-17 01:21:00,51.5,49.1,29.95,SE,135,0.0,0.0,92,0.02,,,0.02,WUHU216HW,2013-01-17 06:21:00,
2013-01-17 01:26:00,51.5,49.1,29.95,SE,135,0.0,0.0,92,0.02,,,0.02,WUHU216HW,2013-01-17 06:26:00,
2013-01-17 01:31:00,51.5,49.1,29.94,SE,135,0.0,0.4,92,0.01,,,0.02,WUHU216HW,2013-01-17 06:31:00,
2013-01-17 01:36:00,51.5,49.1,29.95,SE,135,0.4,0.4,92,0.02,,,0.02,WUHU216HW,2013-01-17 06:36:00,
2013-01-17 01:41:00,51.5,49.1,29.94,SE,135,0.2,0.4,92,0.02,,,0.02,WUHU216HW,2013-01-17 06:41:00,
2013-01-17 01:46:00,51.5,49.1,29.94,SE,135,0.2,0.4,92,0.02,,,0.02,WUHU216HW,2013-01-17 06:46:00,
2013-01-17 01:51:00,51.5,49.1,29.94,ENE,68,0.4,0.4,92,0.03,,,0.04,WUHU216HW,2013-01-17 06:51:00,
2013-01-17 01:56:00,51.5,49.1,29.94,NNW,338,0.4,0.7,92,0.02,,,0.04,WUHU216HW,2013-01-17 06:56:00,
2013-01-17 02:01:00,51.5,49.5,29.95,NNW,338,0.4,0.7,93,0.03,,,0.05,WUHU216HW,2013-01-17 07:01:00,
2013-01-17 02:06:00,51.5,49.5,29.95,NNW,338,0.0,0.9,93,0.03,,,0.05,WUHU216HW,2013-01-17 07:06:00,
2013-01-17 02:11:00,51.5,49.5,29.95,NNW,338,0.2,0.9,93,0.03,,,0.05,WUHU216HW,2013-01-17 07:11:00,
2013-01-17 02:16:00,51.5,49.5,29.95,North,0,0.2,0.9,93,0.03,,,0.05,WUHU216HW,2013-01-17 07:16:00,
2013-01-17 02:21:00,51.5,49.5,29.95,NNW,338,0.4,0.9,93,0.04,,,0.06,WUHU216HW,2013-01-17 07:21:00,
2013-01-17 02:26:00,51.5,49.5,29.95,North,0,0.2,0.9,93,0.04,,,0.06,WUHU216HW,2013-01-17 07:26:00,
2013-01-17 02:31:00,51.5,49.5,29.95,NW,315,0.0,0.9,93,0.04,,,0.06,WUHU216HW,2013-01-17 07:31:00,
2013-01-17 02:36:00,51.5,49.5,29.95,NNE,23,0.4,1.8,93,0.03,,,0.06,WUHU216HW,2013-01-17 07:36:00,
2013-01-17 02:41:00,51.5,49.5,29.95,NNW,338,0.0,1.8,93,0.03,,,0.06,WUHU216HW,2013-01-17 07:41:00,
2013-01-17 02:46:00,51.5,49.5,29.96,SE,135,0.0,1.1,93,0.02,,,0.06,WUHU216HW,2013-01-17 07:46:00,
2013-01-17 02:51:00,51.5,49.5,29.95,ESE,113,0.0,0.4,93,0.03,,,0.07,WUHU216HW,2013-01-17 07:51:00,
2013-01-17 02:56:00,51.5,49.5,29.95,NNE,23,0.9,1.1,93,0.03,,,0.08,WUHU216HW,2013-01-17 07:56:00,
2013-01-17 03:01:00,51.5,49.5,29.95,NNE,23,0.2,1.1,93,0.03,,,0.08,WUHU216HW,2013-01-17 08:01:00,
2013-01-17 03:06:00,51.5,49.5,29.95,North,0,0.0,0.9,93,0.04,,,0.09,WUHU216HW,2013-01-17 08:06:00,
2013-01-17 03:11:00,51.5,49.5,29.95,NNE,23,0.0,0.4,93,0.04,,,0.09,WUHU216HW,2013-01-17 08:11:00,
2013-01-17 03:16:00,51.5,49.5,29.94,North,0,0.2,0.4,93,0.05,,,0.10,WUHU216HW,2013-01-17 08:16:00,
2013-01-17 03:21:00,51.5,49.5,29.95,NNW,338,0.0,0.4,93,0.04,,,0.10,WUHU216HW,2013-01-17 08:21:00,
2013-01-17 03:26:00,51.5,49.5,29.94,North,0,0.0,0.4,93,0.04,,,0.10,WUHU216HW,2013-01-17 08:26:00,
2013-01-17 03:31:00,51.5,49.5,29.95,WSW,248,0.4,0.9,93,0.04,,,0.10,WUHU216HW,2013-01-17 08:31:00,
2013-01-17 03:36:00,51.5,49.5,29.95,North,0,0.4,0.9,93,0.04,,,0.10,WUHU216HW,2013-01-17 08:36:00,
2013-01-17 03:41:00,51.5,49.5,29.94,North,0,0.0,0.9,93,0.04,,,0.10,WUHU216HW,2013-01-17 08:41:00,
2013-01-17 03:46:00,51.5,49.5,29.93,North,0,0.2,0.4,93,0.04,,,0.10,WUHU216HW,2013-01-17 08:46:00,
2013-01-17 03:51:00,51.7,49.7,29.93,North,0,0.2,0.4,93,0.03,,,0.10,WUHU216HW,2013-01-17 08:51:00,
2013-01-17 03:56:00,51.7,49.7,29.93,ESE,113,0.7,0.7,93,0.02,,,0.10,WUHU216HW,2013-01-17 08:56:00,
2013-01-17 04:01:00,51.8,49.9,29.93,NE,45,0.4,0.7,93,0.02,,,0.10,WUHU216HW,2013-01-17 09:01:00,
2013-01-17 04:06:00,51.7,49.7,29.93,NE,45,0.2,0.7,93,0.01,,,0.10,WUHU216HW,2013-01-17 09:06:00,
2013-01-17 04:11:00,51.5,49.5,29.93,NE,45,0.0,0.4,93,0.01,,,0.10,WUHU216HW,2013-01-17 09:11:00,
2013-01-17 04:16:00,51.5,49.1,29.93,NE,45,0.0,0.2,92,0.00,,,0.10,WUHU216HW,2013-01-17 09:16:00,
2013-01-17 04:21:00,51.5,49.1,29.93,NE,45,0.2,0.4,92,0.00,,,0.10,WUHU216HW,2013-01-17 09:21:00,
2013-01-17 04:26:00,51.5,49.1,29.93,NE,45,0.0,0.4,92,0.00,,,0.10,WUHU216HW,2013-01-17 09:26:00,
2013-01-17 04:31:00,51.5,49.1,29.92,NE,45,0.0,0.2,92,0.00,,,0.10,WUHU216HW,2013-01-17 09:31:00,
2013-01-17 04:36:00,51.5,49.1,29.92,ENE,68,0.0,0.7,92,0.00,,,0.10,WUHU216HW,2013-01-17 09:36:00,
2013-01-17 04:41:00,51.5,49.5,29.93,ENE,68,0.4,0.7,93,0.00,,,0.10,WUHU216HW,2013-01-17 09:41:00,
2013-01-17 04:46:00,51.5,49.5,29.93,North,0,0.4,0.9,93,0.00,,,0.10,WUHU216HW,2013-01-17 09:46:00,
2013-01-17 04:51:00,51.5,49.5,29.93,North,0,0.2,1.8,93,0.00,,,0.10,WUHU216HW,2013-01-17 09:51:00,
2013-01-17 04:56:00,51.5,49.5,29.93,North,0,1.3,1.8,93,0.00,,,0.10,WUHU216HW,2013-01-17 09:56:00,
2013-01-17 05:01:00,51.3,49.3,29.93,North,0,0.4,1.3,93,0.05,,,0.15,WUHU216HW,2013-01-17 10:01:00,
2013-01-17 05:06:00,51.3,49.3,29.94,North,0,0.9,1.6,93,0.05,,,0.15,WUHU216HW,2013-01-17 10:06:00,
2013-01-17 05:11:00,51.1,49.2,29.94,NNE,23,0.7,1.6,93,0.07,,,0.17,WUHU216HW,2013-01-17 10:11:00,
2013-01-17 05:16:00,51.1,49.2,29.94,NNW,338,4.0,4.0,93,0.10,,,0.20,WUHU216HW,2013-01-17 10:16:00,
2013-01-17 05:21:00,51.1,49.2,29.95,NNE,23,2.5,4.0,93,0.11,,,0.21,WUHU216HW,2013-01-17 10:21:00,
2013-01-17 05:26:00,50.9,49.0,29.95,North,0,0.9,4.0,93,0.11,,,0.21,WUHU216HW,2013-01-17 10:26:00,
2013-01-17 05:31:00,50.9,49.0,29.96,NNW,338,0.4,2.5,93,0.13,,,0.23,WUHU216HW,2013-01-17 10:31:00,
2013-01-17 05:36:00,50.9,49.0,29.95,NNW,338,0.4,1.3,93,0.14,,,0.24,WUHU216HW,2013-01-17 10:36:00,
2013-01-17 05:41:00,50.8,48.8,29.95,NNW,338,1.6,1.6,93,0.15,,,0.25,WUHU216HW,2013-01-17 10:41:00,
2013-01-17 05:46:00,50.8,48.8,29.95,NNW,338,0.4,1.6,93,0.16,,,0.26,WUHU216HW,2013-01-17 10:46:00,
2013-01-17 05:51:00,50.8,48.8,29.95,NNE,23,0.4,1.6,93,0.17,,,0.27,WUHU216HW,2013-01-17 10:51:00,
2013-01-17 05:56:00,50.8,48.8,29.95,NNE,23,0.4,1.1,93,0.13,,,0.28,WUHU216HW,2013-01-17 10:56:00,
2013-01-17 06:01:00,50.8,48.8,29.95,North,0,0.0,0.7,93,0.13,,,0.28,WUHU216HW,2013-01-17 11:01:00,
2013-01-17 06:06:00,50.9,49.0,29.95,North,0,0.2,0.7,93,0.13,,,0.28,WUHU216HW,2013-01-17 11:06:00,
2013-01-17 06:11:00,50.9,49.0,29.95,NE,45,0.4,0.7,93,0.11,,,0.28,WUHU216HW,2013-01-17 11:11:00,
2013-01-17 06:16:00,50.8,48.8,29.95,ENE,68,0.0,0.9,93,0.08,,,0.28,WUHU216HW,2013-01-17 11:16:00,
2013-01-17 06:21:00,50.8,48.8,29.95,ENE,68,0.4,0.9,93,0.07,,,0.28,WUHU216HW,2013-01-17 11:21:00,
2013-01-17 06:26:00,50.8,48.8,29.95,NNW,338,0.4,1.3,93,0.07,,,0.28,WUHU216HW,2013-01-17 11:26:00,
2013-01-17 06:31:00,50.8,48.8,29.96,North,0,0.0,1.8,93,0.05,,,0.28,WUHU216HW,2013-01-17 11:31:00,
2013-01-17 06:36:00,50.8,48.8,29.97,North,0,0.4,1.8,93,0.03,,,0.28,WUHU216HW,2013-01-17 11:36:00,
2013-01-17 06:41:00,50.6,48.6,29.97,North,0,1.8,1.8,93,0.04,,,0.29,WUHU216HW,2013-01-17 11:41:00,
2013-01-17 06:46:00,50.6,48.6,29.97,NE,45,0.4,1.8,93,0.02,,,0.29,WUHU216HW,2013-01-17 11:46:00,
2013-01-17 06:51:00,50.6,48.6,29.97,NE,45,0.0,1.3,93,0.02,,,0.29,WUHU216HW,2013-01-17 11:51:00,
2013-01-17 06:56:00,50.6,48.6,29.97,NE,45,0.0,1.3,93,0.01,,,0.29,WUHU216HW,2013-01-17 11:56:00,
2013-01-17 07:01:00,50.6,48.6,29.97,NNE,23,0.0,1.1,93,0.02,,,0.30,WUHU216HW,2013-01-17 12:01:00,
2013-01-17 07:06:00,50.4,48.4,29.97,North,0,0.4,1.1,93,0.02,,,0.30,WUHU216HW,2013-01-17 12:06:00,
2013-01-17 07:11:00,50.4,48.4,29.97,NE,45,0.4,1.1,93,0.02,,,0.30,WUHU216HW,2013-01-17 12:11:00,
2013-01-17 07:16:00,50.4,48.4,29.97,NNE,23,0.2,1.3,93,0.02,,,0.30,WUHU216HW,2013-01-17 12:16:00,
2013-01-17 07:21:00,50.4,48.4,29.98,NNE,23,1.1,1.3,93,0.03,,,0.31,WUHU216HW,2013-01-17 12:21:00,
2013-01-17 07:26:00,50.4,48.4,29.98,NNE,23,1.3,1.3,93,0.03,,,0.31,WUHU216HW,2013-01-17 12:26:00,
2013-01-17 07:31:00,50.4,48.4,29.98,ENE,68,0.7,1.3,93,0.03,,,0.31,WUHU216HW,2013-01-17 12:31:00,
2013-01-17 07:36:00,50.4,48.4,29.98,East,90,0.7,1.3,93,0.03,,,0.31,WUHU216HW,2013-01-17 12:36:00,
2013-01-17 07:41:00,50.2,48.3,29.97,NE,45,0.4,1.3,93,0.02,,,0.31,WUHU216HW,2013-01-17 12:41:00,
2013-01-17 07:46:00,50.2,48.3,29.98,ENE,68,0.2,0.9,93,0.03,,,0.32,WUHU216HW,2013-01-17 12:46:00,
2013-01-17 07:51:00,50.4,48.4,29.98,NNE,23,0.0,1.1,93,0.03,,,0.32,WUHU216HW,2013-01-17 12:51:00,
2013-01-17 07:56:00,50.4,48.4,29.99,North,0,0.2,1.1,93,0.02,,,0.32,WUHU216HW,2013-01-17 12:56:00,
2013-01-17 08:01:00,50.4,48.4,29.99,ESE,113,0.0,1.8,93,0.02,,,0.32,WUHU216HW,2013-01-17 13:01:00,
2013-01-17 08:06:00,50.4,48.4,29.99,NE,45,0.4,1.8,93,0.02,,,0.32,WUHU216HW,2013-01-17 13:06:00,
2013-01-17 08:11:00,50.4,48.4,29.98,ENE,68,1.8,1.8,93,0.03,,,0.33,WUHU216HW,2013-01-17 13:11:00,
2013-01-17 08:16:00,50.4,48.4,29.99,NE,45,0.4,1.8,93,0.02,,,0.33,WUHU216HW,2013-01-17 13:16:00,
2013-01-17 08:21:00,50.4,48.4,29.99,NNE,23,0.4,1.8,93,0.03,,,0.34,WUHU216HW,2013-01-17 13:21:00,
2013-01-17 08:26:00,50.4,48.4,29.99,ENE,68,0.0,0.4,93,0.03,,,0.34,WUHU216HW,2013-01-17 13:26:00,
2013-01-17 08:31:00,50.6,48.6,29.99,NE,45,0.9,0.9,93,0.04,,,0.35,WUHU216HW,2013-01-17 13:31:00,
2013-01-17 08:36:00,50.4,48.4,29.99,NE,45,0.2,0.9,93,0.04,,,0.35,WUHU216HW,2013-01-17 13:36:00,
2013-01-17 08:41:00,50.6,48.6,30.00,North,0,0.2,0.9,93,0.04,,,0.35,WUHU216HW,2013-01-17 13:41:00,
2013-01-17 08:46:00,50.4,48.4,30.00,North,0,0.2,0.4,93,0.03,,,0.35,WUHU216HW,2013-01-17 13:46:00,
2013-01-17 08:51:00,50.6,48.6,30.00,North,0,0.0,0.2,93,0.03,,,0.35,WUHU216HW,2013-01-17 13:51:00,
2013-01-17 08:56:00,50.6,48.6,30.01,North,0,0.0,0.2,93,0.04,,,0.36,WUHU216HW,2013-01-17 13:56:00,
2013-01-17 09:01:00,50.8,48.8,30.01,North,0,0.0,0.0,93,0.05,,,0.37,WUHU216HW,2013-01-17 14:01:00,
2013-01-17 09:06:00,50.8,48.8,30.02,North,0,0.0,0.0,93,0.06,,,0.38,WUHU216HW,2013-01-17 14:06:00,
2013-01-17 09:11:00,50.8,48.8,30.01,North,0,0.0,0.0,93,0.06,,,0.39,WUHU216HW,2013-01-17 14:11:00,
2013-01-17 09:16:00,50.8,48.8,30.01,North,0,0.0,0.0,93,0.06,,,0.39,WUHU216HW,2013-01-17 14:16:00,
2013-01-17 09:21:00,50.8,48.8,30.01,North,0,0.0,0.0,93,0.05,,,0.39,WUHU216HW,2013-01-17 14:21:00,
2013-01-17 09:26:00,50.8,48.8,30.01,North,0,0.0,0.0,93,0.05,,,0.39,WUHU216HW,2013-01-17 14:26:00,
2013-01-17 09:31:00,50.6,48.6,30.01,North,0,0.0,0.0,93,0.05,,,0.40,WUHU216HW,2013-01-17 14:31:00,
2013-01-17 09:36:00,50.6,48.6,30.01,North,0,0.0,0.0,93,0.05,,,0.40,WUHU216HW,2013-01-17 14:36:00,
2013-01-17 09:41:00,50.8,48.8,30.01,North,0,0.0,0.0,93,0.05,,,0.40,WUHU216HW,2013-01-17 14:41:00,
2013-01-17 09:46:00,50.8,48.8,30.01,North,0,0.0,0.0,93,0.05,,,0.40,WUHU216HW,2013-01-17 14:46:00,
2013-01-17 09:51:00,50.8,48.8,30.01,North,0,0.0,0.0,93,0.05,,,0.40,WUHU216HW,2013-01-17 14:51:00,
2013-01-17 09:56:00,50.8,48.8,30.01,North,0,0.0,0.0,93,0.03,,,0.40,WUHU216HW,2013-01-17 14:56:00,
2013-01-17 10:01:00,50.8,48.8,30.01,North,0,0.0,0.0,93,0.03,,,0.40,WUHU216HW,2013-01-17 15:01:00,
2013-01-17 10:06:00,50.8,48.8,30.01,East,90,1.3,1.3,93,0.03,,,0.41,WUHU216HW,2013-01-17 15:06:00,
2013-01-17 10:11:00,50.8,48.8,30.00,ENE,68,0.4,2.9,93,0.02,,,0.41,WUHU216HW,2013-01-17 15:11:00,
2013-01-17 10:16:00,50.8,48.8,30.00,North,0,1.3,2.9,93,0.02,,,0.41,WUHU216HW,2013-01-17 15:16:00,
2013-01-17 10:21:00,50.8,48.8,30.00,North,0,0.0,1.3,93,0.02,,,0.41,WUHU216HW,2013-01-17 15:21:00,
2013-01-17 10:26:00,50.9,49.2,30.00,North,0,0.0,1.3,94,0.02,,,0.41,WUHU216HW,2013-01-17 15:26:00,
2013-01-17 10:31:00,50.9,49.2,29.99,North,0,0.0,0.0,94,0.01,,,0.41,WUHU216HW,2013-01-17 15:31:00,
2013-01-17 10:36:00,51.1,49.2,29.99,North,0,0.0,0.0,93,0.01,,,0.41,WUHU216HW,2013-01-17 15:36:00,
2013-01-17 10:41:00,51.3,49.3,29.99,North,0,0.0,0.0,93,0.01,,,0.41,WUHU216HW,2013-01-17 15:41:00,
2013-01-17 10:46:00,51.1,49.2,30.00,North,0,0.0,0.0,93,0.01,,,0.41,WUHU216HW,2013-01-17 15:46:00,
2013-01-17 10:51:00,51.1,49.2,30.00,North,0,0.0,0.0,93,0.01,,,0.41,WUHU216HW,2013-01-17 15:51:00,
2013-01-17 10:56:00,50.9,49.0,30.00,North,0,0.0,0.0,93,0.01,,,0.41,WUHU216HW,2013-01-17 15:56:00,
2013-01-17 11:01:00,50.8,48.4,29.99,North,0,0.0,0.0,92,0.01,,,0.41,WUHU216HW,2013-01-17 16:01:00,
2013-01-17 11:06:00,50.8,48.8,29.99,North,0,0.0,0.0,93,0.01,,,0.42,WUHU216HW,2013-01-17 16:06:00,
2013-01-17 11:11:00,50.8,48.8,29.98,North,0,0.0,0.0,93,0.02,,,0.43,WUHU216HW,2013-01-17 16:11:00,
2013-01-17 11:16:00,50.8,48.8,29.98,North,0,0.0,0.0,93,0.02,,,0.43,WUHU216HW,2013-01-17 16:16:00,
2013-01-17 11:21:00,50.8,48.8,29.98,North,0,0.0,0.0,93,0.02,,,0.43,WUHU216HW,2013-01-17 16:21:00,
2013-01-17 11:26:00,50.8,48.8,29.98,North,0,0.0,0.0,93,0.02,,,0.43,WUHU216HW,2013-01-17 16:26:00,
2013-01-17 11:31:00,50.8,48.8,29.97,North,0,0.0,0.0,93,0.03,,,0.44,WUHU216HW,2013-01-17 16:31:00,
2013-01-17 11:36:00,50.8,48.8,29.97,ENE,68,1.1,1.1,93,0.03,,,0.44,WUHU216HW,2013-01-17 16:36:00,
2013-01-17 11:41:00,50.8,48.8,29.97,East,90,0.4,1.6,93,0.03,,,0.44,WUHU216HW,2013-01-17 16:41:00,
2013-01-17 11:46:00,50.8,48.8,29.96,East,90,1.6,3.4,93,0.03,,,0.44,WUHU216HW,2013-01-17 16:46:00,
2013-01-17 11:51:00,50.8,48.8,29.95,ENE,68,2.0,3.4,93,0.03,,,0.44,WUHU216HW,2013-01-17 16:51:00,
2013-01-17 11:56:00,50.8,48.8,29.95,ESE,113,5.1,5.1,93,0.03,,,0.44,WUHU216HW,2013-01-17 16:56:00,
2013-01-17 12:01:00,50.8,48.8,29.95,East,90,1.8,5.1,93,0.02,,,0.44,WUHU216HW,2013-01-17 17:01:00,
2013-01-17 12:06:00,50.8,48.8,29.95,ENE,68,1.6,5.1,93,0.02,,,0.44,WUHU216HW,2013-01-17 17:06:00,
2013-01-17 12:11:00,50.9,49.0,29.94,ENE,68,4.0,5.1,93,0.01,,,0.44,WUHU216HW,2013-01-17 17:11:00,
2013-01-17 12:16:00,50.8,48.8,29.95,NE,45,6.0,6.7,93,0.01,,,0.44,WUHU216HW,2013-01-17 17:16:00,
2013-01-17 12:21:00,50.8,48.4,29.94,ENE,68,4.7,6.7,92,0.01,,,0.44,WUHU216HW,2013-01-17 17:21:00,
2013-01-17 12:26:00,50.8,48.4,29.94,East,90,1.6,6.7,92,0.00,,,0.44,WUHU216HW,2013-01-17 17:26:00,
2013-01-17 12:31:00,50.6,48.2,29.93,ENE,68,3.1,6.3,92,0.00,,,0.44,WUHU216HW,2013-01-17 17:31:00,
2013-01-17 12:36:00,50.6,48.2,29.93,ENE,68,1.1,3.4,92,0.00,,,0.44,WUHU216HW,2013-01-17 17:36:00,
2013-01-17 12:41:00,50.4,48.1,29.93,ENE,68,0.7,3.4,92,0.00,,,0.44,WUHU216HW,2013-01-17 17:41:00,
2013-01-17 12:46:00,50.4,48.1,29.93,NE,45,0.4,2.9,92,0.00,,,0.44,WUHU216HW,2013-01-17 17:46:00,
2013-01-17 12:51:00,50.4,48.1,29.93,NE,45,2.2,3.4,92,0.00,,,0.44,WUHU216HW,2013-01-17 17:51:00,
2013-01-17 12:56:00,50.2,47.9,29.92,ENE,68,1.8,3.4,92,0.00,,,0.44,WUHU216HW,2013-01-17 17:56:00,
2013-01-17 13:01:00,50.2,47.9,29.91,ENE,68,1.1,3.4,92,0.00,,,0.44,WUHU216HW,2013-01-17 18:01:00,
2013-01-17 13:06:00,50.2,47.9,29.91,NNE,23,1.1,3.4,92,0.00,,,0.44,WUHU216HW,2013-01-17 18:06:00,
2013-01-17 13:11:00,50.0,47.7,29.91,NE,45,1.1,3.4,92,0.00,,,0.44,WUHU216HW,2013-01-17 18:11:00,
2013-01-17 13:16:00,50.0,47.7,29.91,NE,45,2.2,3.1,92,0.00,,,0.44,WUHU216HW,2013-01-17 18:16:00,
2013-01-17 13:21:00,50.0,47.7,29.91,ESE,113,1.1,3.1,92,0.00,,,0.44,WUHU216HW,2013-01-17 18:21:00,
2013-01-17 13:26:00,50.0,47.7,29.90,ENE,68,2.9,4.0,92,0.00,,,0.44,WUHU216HW,2013-01-17 18:26:00,
2013-01-17 13:31:00,50.0,47.7,29.91,NNE,23,0.9,4.0,92,0.00,,,0.44,WUHU216HW,2013-01-17 18:31:00,
2013-01-17 13:36:00,50.0,47.7,29.91,NNE,23,1.3,2.9,92,0.00,,,0.44,WUHU216HW,2013-01-17 18:36:00,
2013-01-17 13:41:00,50.0,47.7,29.90,ENE,68,3.1,4.0,92,0.00,,,0.44,WUHU216HW,2013-01-17 18:41:00,
2013-01-17 13:46:00,49.9,47.6,29.90,ENE,68,0.2,4.0,92,0.00,,,0.44,WUHU216HW,2013-01-17 18:46:00,
2013-01-17 13:51:00,50.0,47.7,29.90,NNE,23,1.8,3.1,92,0.00,,,0.44,WUHU216HW,2013-01-17 18:51:00,
2013-01-17 13:56:00,50.0,47.7,29.89,NE,45,4.3,5.8,92,0.00,,,0.44,WUHU216HW,2013-01-17 18:56:00,
2013-01-17 14:01:00,49.9,47.6,29.89,ENE,68,3.6,5.8,92,0.00,,,0.44,WUHU216HW,2013-01-17 19:01:00,
2013-01-17 14:06:00,49.9,47.6,29.89,ESE,113,0.0,5.6,92,0.00,,,0.44,WUHU216HW,2013-01-17 19:06:00,
2013-01-17 14:11:00,50.0,47.7,29.89,NNE,23,0.7,3.6,92,0.00,,,0.44,WUHU216HW,2013-01-17 19:11:00,
2013-01-17 14:16:00,50.0,47.7,29.89,North,0,1.8,3.6,92,0.00,,,0.44,WUHU216HW,2013-01-17 19:16:00,
2013-01-17 14:21:00,49.9,47.6,29.89,ENE,68,2.5,2.9,92,0.00,,,0.44,WUHU216HW,2013-01-17 19:21:00,
2013-01-17 14:26:00,49.9,47.6,29.89,East,90,0.0,3.6,92,0.00,,,0.44,WUHU216HW,2013-01-17 19:26:00,
2013-01-17 14:31:00,49.9,47.6,29.89,ENE,68,0.7,3.8,92,0.00,,,0.44,WUHU216HW,2013-01-17 19:31:00,
2013-01-17 14:36:00,49.9,47.9,29.88,ENE,68,2.2,3.8,93,0.00,,,0.44,WUHU216HW,2013-01-17 19:36:00,
2013-01-17 14:41:00,49.9,47.9,29.87,East,90,1.6,4.5,93,0.00,,,0.44,WUHU216HW,2013-01-17 19:41:00,
2013-01-17 14:46:00,49.7,47.7,29.87,NE,45,1.6,5.1,93,0.00,,,0.44,WUHU216HW,2013-01-17 19:46:00,
2013-01-17 14:51:00,49.7,47.7,29.88,ENE,68,2.5,5.1,93,0.00,,,0.44,WUHU216HW,2013-01-17 19:51:00,
2013-01-17 14:56:00,49.7,47.7,29.87,ENE,68,0.9,5.4,93,0.00,,,0.44,WUHU216HW,2013-01-17 19:56:00,
2013-01-17 15:01:00,49.7,47.7,29.87,ENE,68,2.5,5.4,93,0.00,,,0.44,WUHU216HW,2013-01-17 20:01:00,
2013-01-17 15:06:00,49.7,47.4,29.87,ENE,68,5.1,5.4,92,0.00,,,0.44,WUHU216HW,2013-01-17 20:06:00,
2013-01-17 15:11:00,49.5,47.3,29.88,ENE,68,2.7,5.4,92,0.00,,,0.44,WUHU216HW,2013-01-17 20:11:00,
2013-01-17 15:16:00,49.3,47.1,29.87,ENE,68,3.1,7.4,92,0.00,,,0.44,WUHU216HW,2013-01-17 20:16:00,
2013-01-17 15:21:00,49.3,47.1,29.87,East,90,2.9,7.4,92,0.00,,,0.44,WUHU216HW,2013-01-17 20:21:00,
2013-01-17 15:26:00,49.3,47.1,29.87,ENE,68,2.9,5.4,92,0.00,,,0.44,WUHU216HW,2013-01-17 20:26:00,
2013-01-17 15:31:00,49.3,47.1,29.87,ENE,68,2.5,7.6,92,0.00,,,0.44,WUHU216HW,2013-01-17 20:31:00,
2013-01-17 15:36:00,49.1,46.6,29.88,East,90,6.3,7.6,91,0.00,,,0.44,WUHU216HW,2013-01-17 20:36:00,
2013-01-17 15:41:00,49.0,46.4,29.88,NE,45,4.0,7.8,91,0.01,,,0.45,WUHU216HW,2013-01-17 20:41:00,
2013-01-17 15:46:00,48.8,46.3,29.88,ENE,68,4.0,8.5,91,0.01,,,0.45,WUHU216HW,2013-01-17 20:46:00,
2013-01-17 15:51:00,48.6,46.2,29.88,ENE,68,3.8,8.5,91,0.01,,,0.45,WUHU216HW,2013-01-17 20:51:00,
2013-01-17 15:56:00,48.2,45.8,29.89,NNE,23,0.9,7.4,91,0.01,,,0.45,WUHU216HW,2013-01-17 20:56:00,
2013-01-17 16:01:00,48.2,45.8,29.89,East,90,2.9,7.2,91,0.01,,,0.45,WUHU216HW,2013-01-17 21:01:00,
2013-01-17 16:06:00,47.9,45.5,29.89,ENE,68,4.7,6.0,91,0.01,,,0.45,WUHU216HW,2013-01-17 21:06:00,
2013-01-17 16:11:00,47.9,45.5,29.88,NE,45,4.0,8.5,91,0.01,,,0.45,WUHU216HW,2013-01-17 21:11:00,
2013-01-17 16:16:00,47.7,45.3,29.88,ENE,68,6.7,8.7,91,0.01,,,0.45,WUHU216HW,2013-01-17 21:16:00,
2013-01-17 16:21:00,47.5,45.1,29.88,NE,45,7.2,8.7,91,0.01,,,0.45,WUHU216HW,2013-01-17 21:21:00,
2013-01-17 16:26:00,47.5,45.1,29.88,ENE,68,2.0,7.4,91,0.01,,,0.45,WUHU216HW,2013-01-17 21:26:00,
2013-01-17 16:31:00,47.3,44.9,29.89,ENE,68,3.1,6.5,91,0.01,,,0.45,WUHU216HW,2013-01-17 21:31:00,
2013-01-17 16:36:00,47.3,45.2,29.89,ESE,113,2.5,5.8,92,0.00,,,0.45,WUHU216HW,2013-01-17 21:36:00,
2013-01-17 16:41:00,47.2,44.7,29.89,ESE,113,5.4,8.9,91,0.00,,,0.45,WUHU216HW,2013-01-17 21:41:00,
2013-01-17 16:46:00,47.2,44.7,29.89,ENE,68,2.5,8.9,91,0.01,,,0.45,WUHU216HW,2013-01-17 21:46:00,
2013-01-17 16:51:00,46.8,44.4,29.88,NE,45,5.1,5.8,91,0.01,,,0.46,WUHU216HW,2013-01-17 21:51:00,
2013-01-17 16:56:00,46.4,43.7,29.89,ENE,68,4.0,11.9,90,0.01,,,0.46,WUHU216HW,2013-01-17 21:56:00,
2013-01-17 17:01:00,46.1,43.4,29.89,ENE,68,4.3,11.9,90,0.02,,,0.47,WUHU216HW,2013-01-17 22:01:00,
2013-01-17 17:06:00,45.7,43.0,29.90,ENE,68,6.7,10.1,90,0.02,,,0.47,WUHU216HW,2013-01-17 22:06:00,
2013-01-17 17:11:00,45.7,43.0,29.90,East,90,4.7,10.1,90,0.02,,,0.47,WUHU216HW,2013-01-17 22:11:00,
2013-01-17 17:16:00,45.4,42.9,29.89,ENE,68,3.1,8.9,91,0.02,,,0.47,WUHU216HW,2013-01-17 22:16:00,
2013-01-17 17:21:00,45.4,42.9,29.89,ENE,68,3.4,5.4,91,0.02,,,0.47,WUHU216HW,2013-01-17 22:21:00,
2013-01-17 17:26:00,45.4,42.9,29.90,ENE,68,4.0,5.8,91,0.02,,,0.47,WUHU216HW,2013-01-17 22:26:00,
2013-01-17 17:31:00,45.2,42.8,29.89,ENE,68,5.8,8.3,91,0.02,,,0.47,WUHU216HW,2013-01-17 22:31:00,
2013-01-17 17:36:00,45.0,42.6,29.89,East,90,4.0,8.3,91,0.02,,,0.47,WUHU216HW,2013-01-17 22:36:00,
2013-01-17 17:41:00,44.8,42.4,29.89,NE,45,2.9,8.5,91,0.02,,,0.47,WUHU216HW,2013-01-17 22:41:00,
2013-01-17 17:46:00,44.5,41.8,29.89,North,0,5.1,9.8,90,0.01,,,0.47,WUHU216HW,2013-01-17 22:46:00,
2013-01-17 17:51:00,44.3,41.6,29.90,NNE,23,4.0,9.8,90,0.03,,,0.49,WUHU216HW,2013-01-17 22:51:00,
2013-01-17 17:56:00,44.3,41.6,29.92,NNE,23,1.8,6.3,90,0.02,,,0.49,WUHU216HW,2013-01-17 22:56:00,
2013-01-17 18:01:00,44.1,41.4,29.91,NE,45,1.8,5.8,90,0.03,,,0.51,WUHU216HW,2013-01-17 23:01:00,
2013-01-17 18:06:00,43.9,41.5,29.91,ENE,68,3.8,5.8,91,0.05,,,0.52,WUHU216HW,2013-01-17 23:06:00,
2013-01-17 18:11:00,43.9,41.2,29.89,ENE,68,9.2,9.2,90,0.06,,,0.53,WUHU216HW,2013-01-17 23:11:00,
2013-01-17 18:16:00,43.7,41.3,29.92,NNW,338,6.0,10.3,91,0.07,,,0.54,WUHU216HW,2013-01-17 23:16:00,
2013-01-17 18:21:00,43.9,41.5,29.94,SW,225,2.7,10.3,91,0.07,,,0.54,WUHU216HW,2013-01-17 23:21:00,
2013-01-17 18:26:00,43.9,41.5,29.93,NE,45,5.6,6.3,91,0.08,,,0.56,WUHU216HW,2013-01-17 23:26:00,
2013-01-17 18:31:00,43.6,41.4,29.92,NE,45,1.8,6.3,92,0.10,,,0.58,WUHU216HW,2013-01-17 23:31:00,
2013-01-17 18:36:00,43.6,41.1,29.94,NNE,23,0.4,6.5,91,0.12,,,0.60,WUHU216HW,2013-01-17 23:36:00,
2013-01-17 18:41:00,43.6,40.9,29.96,NNE,23,0.4,6.5,90,0.12,,,0.60,WUHU216HW,2013-01-17 23:41:00,
2013-01-17 18:46:00,43.2,40.2,29.94,East,90,5.4,5.8,89,0.12,,,0.60,WUHU216HW,2013-01-17 23:46:00,
2013-01-17 18:51:00,42.7,39.7,29.94,ENE,68,5.4,6.5,89,0.11,,,0.60,WUHU216HW,2013-01-17 23:51:00,
2013-01-17 18:56:00,42.1,39.2,29.93,ENE,68,5.4,14.1,89,0.10,,,0.61,WUHU216HW,2013-01-17 23:56:00,
2013-01-17 19:01:00,41.8,39.1,29.93,NE,45,8.5,14.1,90,0.09,,,0.61,WUHU216HW,2013-01-18 00:01:00,
2013-01-17 19:06:00,41.6,38.9,29.93,SSW,203,1.1,11.6,90,0.09,,,0.62,WUHU216HW,2013-01-18 00:06:00,
2013-01-17 19:11:00,41.4,38.7,29.93,North,0,3.1,9.8,90,0.10,,,0.64,WUHU216HW,2013-01-18 00:11:00,
2013-01-17 19:16:00,41.4,38.7,29.93,ENE,68,3.4,3.6,90,0.09,,,0.64,WUHU216HW,2013-01-18 00:16:00,
2013-01-17 19:21:00,41.0,38.6,29.92,ENE,68,3.4,4.3,91,0.09,,,0.65,WUHU216HW,2013-01-18 00:21:00,
2013-01-17 19:26:00,40.9,38.2,29.92,NNE,23,3.8,6.3,90,0.09,,,0.65,WUHU216HW,2013-01-18 00:26:00,
2013-01-17 19:31:00,40.7,38.0,29.91,NE,45,5.4,6.3,90,0.08,,,0.65,WUHU216HW,2013-01-18 00:31:00,
2013-01-17 19:36:00,40.5,37.8,29.92,NNE,23,4.9,5.8,90,0.06,,,0.65,WUHU216HW,2013-01-18 00:36:00,
2013-01-17 19:41:00,40.3,37.6,29.91,NE,45,2.7,5.4,90,0.07,,,0.65,WUHU216HW,2013-01-18 00:41:00,
2013-01-17 19:46:00,40.3,37.6,29.92,NNW,338,1.1,5.8,90,0.08,,,0.68,WUHU216HW,2013-01-18 00:46:00,
2013-01-17 19:51:00,40.1,37.4,29.91,NNW,338,1.8,5.8,90,0.08,,,0.69,WUHU216HW,2013-01-18 00:51:00,
2013-01-17 19:56:00,40.0,37.3,29.92,NE,45,4.0,8.1,90,0.09,,,0.70,WUHU216HW,2013-01-18 00:56:00,
2013-01-17 20:01:00,40.0,37.5,29.92,NE,45,2.2,8.1,91,0.10,,,0.72,WUHU216HW,2013-01-18 01:01:00,
2013-01-17 20:06:00,39.8,37.4,29.91,East,90,4.3,5.8,91,0.11,,,0.74,WUHU216HW,2013-01-18 01:06:00,
2013-01-17 20:11:00,39.8,37.4,29.91,North,0,7.2,7.2,91,0.12,,,0.76,WUHU216HW,2013-01-18 01:11:00,
2013-01-17 20:16:00,39.6,37.2,29.90,North,0,6.9,7.2,91,0.13,,,0.78,WUHU216HW,2013-01-18 01:16:00,
2013-01-17 20:21:00,39.6,37.2,29.94,NNE,23,3.4,7.2,91,0.14,,,0.79,WUHU216HW,2013-01-18 01:21:00,
2013-01-17 20:26:00,39.8,37.4,29.94,NNW,338,1.8,7.6,91,0.14,,,0.80,WUHU216HW,2013-01-18 01:26:00,
2013-01-17 20:31:00,39.6,37.2,29.96,NW,315,2.5,7.6,91,0.16,,,0.82,WUHU216HW,2013-01-18 01:31:00,
2013-01-17 20:36:00,39.4,36.7,29.99,NE,45,1.8,4.7,90,0.19,,,0.85,WUHU216HW,2013-01-18 01:36:00,
2013-01-17 20:41:00,39.2,36.5,29.98,NW,315,3.1,4.7,90,0.19,,,0.87,WUHU216HW,2013-01-18 01:41:00,
2013-01-17 20:46:00,38.5,35.8,29.95,NNE,23,6.3,6.9,90,0.20,,,0.88,WUHU216HW,2013-01-18 01:46:00,
2013-01-17 20:51:00,38.2,35.5,29.94,West,270,2.9,6.9,90,0.20,,,0.89,WUHU216HW,2013-01-18 01:51:00,
2013-01-17 20:56:00,37.8,35.1,29.97,East,90,0.7,6.3,90,0.19,,,0.90,WUHU216HW,2013-01-18 01:56:00,
2013-01-17 21:01:00,37.6,34.9,29.98,ENE,68,0.7,3.1,90,0.17,,,0.90,WUHU216HW,2013-01-18 02:01:00,
2013-01-17 21:06:00,37.1,34.1,29.97,NNW,338,0.9,4.7,89,0.17,,,0.92,WUHU216HW,2013-01-18 02:06:00,
2013-01-17 21:11:00,36.5,33.6,29.98,NW,315,3.4,4.7,89,0.16,,,0.92,WUHU216HW,2013-01-18 02:11:00,
2013-01-17 21:16:00,35.8,32.9,29.98,NNW,338,1.1,6.3,89,0.15,,,0.93,WUHU216HW,2013-01-18 02:16:00,
2013-01-17 21:21:00,35.1,32.1,29.96,NE,45,2.5,6.3,89,0.14,,,0.93,WUHU216HW,2013-01-18 02:21:00,
2013-01-17 21:26:00,34.9,32.0,29.98,ESE,113,0.7,4.7,89,0.13,,,0.93,WUHU216HW,2013-01-18 02:26:00,
2013-01-17 21:31:00,34.7,32.0,29.98,West,270,1.3,3.4,90,0.11,,,0.93,WUHU216HW,2013-01-18 02:31:00,
2013-01-17 21:36:00,34.7,32.0,30.00,West,270,1.1,2.2,90,0.06,,,0.93,WUHU216HW,2013-01-18 02:36:00,
2013-01-17 21:41:00,34.7,32.0,30.00,WNW,293,1.8,2.2,90,0.05,,,0.93,WUHU216HW,2013-01-18 02:41:00,
2013-01-17 21:46:00,34.6,31.9,30.02,North,0,0.2,2.2,90,0.05,,,0.93,WUHU216HW,2013-01-18 02:46:00,
2013-01-17 21:51:00,34.6,31.9,30.02,ENE,68,1.1,1.8,90,0.04,,,0.93,WUHU216HW,2013-01-18 02:51:00,
2013-01-17 21:56:00,34.6,31.9,30.00,NNE,23,1.3,1.8,90,0.03,,,0.93,WUHU216HW,2013-01-18 02:56:00,
2013-01-17 22:01:00,34.4,31.7,30.00,NNE,23,0.9,1.8,90,0.02,,,0.93,WUHU216HW,2013-01-18 03:01:00,
2013-01-17 22:06:00,34.2,31.5,30.00,NW,315,1.1,1.8,90,0.01,,,0.93,WUHU216HW,2013-01-18 03:06:00,
2013-01-17 22:11:00,34.2,31.8,30.00,North,0,0.7,1.6,91,0.00,,,0.93,WUHU216HW,2013-01-18 03:11:00,
2013-01-17 22:16:00,34.2,31.8,30.00,NNE,23,0.0,1.6,91,0.00,,,0.93,WUHU216HW,2013-01-18 03:16:00,
2013-01-17 22:21:00,34.4,32.0,30.01,NNE,23,0.7,1.6,91,0.00,,,0.93,WUHU216HW,2013-01-18 03:21:00,
2013-01-17 22:26:00,34.2,31.8,30.00,NNE,23,0.9,1.1,91,0.00,,,0.93,WUHU216HW,2013-01-18 03:26:00,
2013-01-17 22:31:00,34.2,31.8,30.00,NNE,23,0.2,1.1,91,0.00,,,0.93,WUHU216HW,2013-01-18 03:31:00,
2013-01-17 22:36:00,34.2,31.8,30.00,ESE,113,1.8,2.0,91,0.00,,,0.93,WUHU216HW,2013-01-18 03:36:00,
2013-01-17 22:41:00,34.2,32.0,30.00,ESE,113,0.2,2.0,92,0.00,,,0.93,WUHU216HW,2013-01-18 03:41:00,
2013-01-17 22:46:00,34.4,32.2,30.01,ESE,113,0.0,2.0,92,0.00,,,0.93,WUHU216HW,2013-01-18 03:46:00,
2013-01-17 22:51:00,34.6,32.4,30.01,North,0,0.9,2.9,92,0.00,,,0.93,WUHU216HW,2013-01-18 03:51:00,
2013-01-17 22:56:00,34.4,32.2,30.01,West,270,1.1,2.9,92,0.00,,,0.93,WUHU216HW,2013-01-18 03:56:00,
2013-01-17 23:01:00,34.4,32.2,30.03,NW,315,1.3,1.8,92,0.00,,,0.93,WUHU216HW,2013-01-18 04:01:00,
2013-01-17 23:06:00,34.6,32.4,30.04,WNW,293,0.0,1.8,92,0.00,,,0.93,WUHU216HW,2013-01-18 04:06:00,
2013-01-17 23:11:00,34.6,32.4,30.04,North,0,1.3,1.8,92,0.00,,,0.93,WUHU216HW,2013-01-18 04:11:00,
2013-01-17 23:16:00,34.7,32.6,30.04,NE,45,0.0,1.6,92,0.00,,,0.93,WUHU216HW,2013-01-18 04:16:00,
2013-01-17 23:21:00,34.6,32.4,30.04,NNW,338,0.4,1.6,92,0.00,,,0.93,WUHU216HW,2013-01-18 04:21:00,
2013-01-17 23:26:00,34.7,32.6,30.05,NW,315,1.8,2.5,92,0.00,,,0.93,WUHU216HW,2013-01-18 04:26:00,
2013-01-17 23:31:00,34.7,32.6,30.06,NW,315,0.4,2.5,92,0.00,,,0.93,WUHU216HW,2013-01-18 04:31:00,
2013-01-17 23:36:00,34.7,32.6,30.07,WNW,293,1.8,2.2,92,0.00,,,0.93,WUHU216HW,2013-01-18 04:36:00,
2013-01-17 23:42:00,34.9,32.8,30.08,NW,315,1.6,2.2,92,0.00,,,0.93,WUHU216HW,2013-01-18 04:42:00,
2013-01-17 23:47:00,34.9,32.8,30.09,NNW,338,0.9,2.0,92,0.00,,,0.93,WUHU216HW,2013-01-18 04:47:00,
2013-01-17 23:52:00,34.9,32.8,30.09,NNW,338,1.8,2.0,92,0.00,,,0.93,WUHU216HW,2013-01-18 04:52:00,
2013-01-17 23:57:00,34.9,32.8,30.10,NW,315,1.1,1.8,92,0.00,,,0.93,WUHU216HW,2013-01-18 04:57:00,